Aviation Digital Data Service (ADDS)

Output produced by METARs form (1325 UTC 06 February 2016)
found at http://aviationweather.gov/adds/metars/
 
KCON 061120Z 0611/0706 32005KT P6SM SKC 
     FM061400 22006KT P6SM SCT050 SCT100